Latest Weather Observations for Dunalley

IDT60901

Issued at 10:11 am EST Friday 28 August 2015 (issued every 10 minutes, with the page automatically refreshed every 10 minutes)

About weather observations | Map of Hobart area stations | Latest observations for Hobart area | Other Formats
Station Details ID: 094254 Name: DUNALLEY (STROUD POINT) Lat: -42.90 Lon: 147.79 Height: 12.43 m
Data from the previous 72 hours. | See also: Recent months at Dunalley
Date/Time
EST
Tmp

°C
App
Tmp
°C
Dew
Point
°C
Rel
Hum
%
Delta-T

°C
Wind Press
QNH
hPa
Press
MSL
hPa
Rain
since
9 am
mm
Dir
 
Spd
km/h
Gust
km/h
Spd
kts
Gust
kts
28/10:00am 7.6 0.7 2.5 70 2.1 SSW 28 35 15 19 1025.9 1026.0 0.0
28/09:30am 6.4 -2.6 2.7 77 1.5 S 39 59 21 32 1025.9 1026.0 0.0
28/09:28am 6.2 -2.4 2.8 79 1.4 SSW 37 59 20 32 1026.0 1026.1 0.0
28/09:23am 6.7 -0.9 2.6 75 1.7 SW 32 59 17 32 1025.8 1025.9 0.0
28/09:22am 7.1 -0.1 2.8 74 1.8 SW 30 59 16 32 1025.9 1026.0 0.0
28/09:00am 6.3 -1.5 2.9 79 1.4 SW 33 50 18 27 1026.0 1026.1 1.0
28/08:52am 7.0 -0.1 3.3 77 1.6 SSW 30 50 16 27 1026.0 1026.1 1.0
28/08:30am 6.2 -0.7 2.7 78 1.4 S 28 39 15 21 1025.9 1026.0 1.0
28/08:00am 6.4 0.4 3.6 82 1.2 S 24 30 13 16 1026.0 1026.1 0.8
28/07:40am 5.4 -2.2 2.9 84 1.0 SSW 32 46 17 25 1025.8 1025.9 0.8
28/07:30am 5.9 -3.7 3.6 85 1.0 SW 43 50 23 27 1025.6 1025.7 0.6
28/07:00am 6.6 -1.3 2.3 74 1.8 SSW 33 39 18 21 1025.1 1025.2 0.6
28/06:38am 6.0 -1.4 1.9 75 1.7 SSW 30 48 16 26 1025.1 1025.2 0.6
28/06:30am 6.0 -2.6 2.5 78 1.4 SSW 37 50 20 27 1024.9 1025.0 0.6
28/06:18am 6.9 -0.7 2.6 74 1.8 SSW 32 57 17 31 1024.7 1024.8 0.6
28/06:00am 7.0 0.6 1.1 66 2.3 SSW 24 37 13 20 1024.6 1024.7 0.6
28/05:30am 7.2 -0.3 1.3 66 2.4 SSW 30 35 16 19 1024.4 1024.5 0.6
28/05:00am 7.3 0.7 2.2 70 2.1 SSW 26 32 14 17 1024.1 1024.2 0.6
28/04:30am 7.3 1.8 3.9 79 1.5 SSW 22 30 12 16 1023.9 1024.0 0.6
28/04:00am 7.2 1.4 4.3 82 1.2 SSW 24 28 13 15 1023.8 1023.9 0.4
28/03:30am 7.2 1.8 4.7 84 1.1 SSW 22 32 12 17 1023.5 1023.6 0.4
28/03:00am 7.3 2.1 5.6 89 0.8 SSW 22 28 12 15 1023.4 1023.5 0.4
28/02:30am 7.2 0.1 5.7 90 0.7 SSW 32 41 17 22 1023.4 1023.5 0.4
28/02:00am 7.5 0.4 6.4 93 0.5 SSW 33 39 18 21 1023.2 1023.3 0.4
28/01:30am 8.0 1.5 6.5 90 0.7 SSW 30 37 16 20 1022.9 1023.0 0.2
28/01:00am 7.9 1.8 6.8 93 0.5 WSW 28 33 15 18 1022.7 1022.8 0.2
28/12:30am 8.6 4.0 6.4 86 1.0 WSW 20 24 11 13 1022.7 1022.8 0.0
28/12:00am 8.4 4.4 6.5 88 0.9 WSW 17 19 9 10 1022.6 1022.7 0.0
 
Date/Time
EST
Tmp

°C
App
Tmp
°C
Dew
Point
°C
Rel
Hum
%
Delta-T

°C
Wind Press
QNH
hPa
Press
MSL
hPa
Rain
since
9 am
mm
Dir
 
Spd
km/h
Gust
km/h
Spd
kts
Gust
kts
27/11:30pm 8.5 4.6 7.1 91 0.7 NNE 17 20 9 11 1022.6 1022.7 0.0
27/11:00pm 7.6 4.6 6.2 91 0.6 NE 11 13 6 7 1023.0 1023.1 0.0
27/10:30pm 8.7 5.9 6.8 88 0.9 NE 11 13 6 7 1023.1 1023.2 0.0
27/10:00pm 9.2 5.2 6.5 83 1.2 NE 17 17 9 9 1022.9 1023.0 0.0
27/09:30pm 9.1 5.8 6.4 83 1.2 NE 13 13 7 7 1023.2 1023.3 0.0
27/09:00pm 9.0 6.7 5.6 79 1.5 NE 7 9 4 5 1023.1 1023.2 0.0
27/08:30pm 9.3 6.7 6.2 81 1.4 NE 9 9 5 5 1023.0 1023.1 0.0
27/08:00pm 9.5 6.2 6.4 81 1.4 NE 13 15 7 8 1022.9 1023.0 0.0
27/07:30pm 9.3 6.8 6.4 82 1.3 NE 9 11 5 6 1022.7 1022.8 0.0
27/07:00pm 9.2 6.7 6.6 84 1.2 NE 9 9 5 5 1022.5 1022.6 0.0
27/06:30pm 9.6 7.1 6.5 81 1.4 NE 9 13 5 7 1022.3 1022.4 0.0
27/06:00pm 9.6 7.5 6.7 82 1.3 NE 7 9 4 5 1022.1 1022.2 0.0
27/05:30pm 9.7 7.0 7.5 86 1.0 NE 11 15 6 8 1021.8 1021.9 0.0
27/05:00pm 10.1 7.4 7.3 83 1.3 NE 11 17 6 9 1021.6 1021.7 0.0
27/04:30pm 10.1 8.7 7.2 82 1.4 NE 4 6 2 3 1021.6 1021.7 0.0
27/04:00pm 10.5 8.6 6.6 77 1.8 NE 6 7 3 4 1021.5 1021.6 0.0
27/03:30pm 10.9 8.5 7.0 77 1.9 NE 9 13 5 7 1021.4 1021.5 0.0
27/03:00pm 10.8 7.8 6.2 73 2.1 NE 11 13 6 7 1021.5 1021.6 0.0
27/02:30pm 10.9 7.6 6.5 74 2.1 NE 13 15 7 8 1021.5 1021.6 0.0
27/02:00pm 10.7 8.3 5.3 69 2.5 NE 7 7 4 4 1021.5 1021.6 0.0
27/01:30pm 10.3 8.6 5.7 73 2.1 NE 4 6 2 3 1021.8 1021.9 0.0
27/01:00pm 10.0 7.9 5.6 74 2.0 NE 6 6 3 3 1022.2 1022.3 0.0
27/12:30pm 9.8 8.2 6.3 79 1.6 NE 4 6 2 3 1022.6 1022.7 0.0
27/12:00pm 9.1 7.1 6.2 82 1.3 NE 6 6 3 3 1023.0 1023.1 0.0
27/11:30am 9.1 7.4 6.0 81 1.4 NE 4 4 2 2 1023.3 1023.4 0.0
27/11:00am 8.6 6.9 5.9 83 1.2 NE 4 6 2 3 1023.6 1023.7 0.0
27/10:30am 8.3 6.0 5.8 84 1.1 NE 7 9 4 5 1023.8 1023.9 0.0
27/10:00am 8.1 5.4 5.7 85 1.1 NE 9 11 5 6 1024.1 1024.2 0.0
27/09:30am 7.9 5.2 5.5 85 1.1 NE 9 11 5 6 1024.2 1024.3 0.0
27/09:00am 7.8 5.0 5.1 83 1.2 NE 9 9 5 5 1024.3 1024.4 0.0
27/08:30am 7.4 5.1 4.9 84 1.1 NE 6 7 3 4 1024.5 1024.6 0.0
27/08:00am 7.1 4.9 5.4 89 0.7 NE 6 7 3 4 1024.5 1024.6 0.0
27/07:30am 6.6 4.8 5.6 93 0.4 NE 4 4 2 2 1024.3 1024.4 0.0
27/07:00am 6.6 3.9 5.6 93 0.4 NE 9 9 5 5 1024.1 1024.2 0.0
27/06:30am 6.5 3.7 5.3 92 0.5 NE 9 9 5 5 1024.0 1024.1 0.0
27/06:00am 6.8 4.5 5.9 94 0.4 NE 7 9 4 5 1023.8 1023.9 0.0
27/05:30am 6.4 4.2 5.5 94 0.4 NE 6 6 3 3 1023.9 1024.0 0.0
27/05:00am 6.6 4.3 5.6 93 0.4 NE 7 9 4 5 1023.8 1023.9 0.0
27/04:30am 6.4 4.1 5.0 91 0.6 NE 6 7 3 4 1024.0 1024.1 0.0
27/04:00am 6.5 5.4 5.1 91 0.6 CALM 0 0 0 0 1024.3 1024.4 0.0
27/03:30am 6.7 5.3 5.3 91 0.6 NE 2 4 1 2 1024.6 1024.7 0.0
27/03:00am 6.4 5.3 4.9 90 0.6 CALM 0 2 0 1 1024.9 1025.0 0.0
27/02:30am 6.8 4.6 5.3 90 0.7 NE 6 6 3 3 1025.1 1025.2 0.0
27/02:00am 6.7 5.6 5.0 89 0.7 CALM 0 0 0 0 1025.7 1025.8 0.0
27/01:30am 6.8 5.3 4.8 87 0.9 NE 2 6 1 3 1026.0 1026.1 0.0
27/01:00am 6.6 4.7 4.8 88 0.8 NE 4 6 2 3 1026.3 1026.4 0.0
27/12:30am 7.8 5.6 6.1 89 0.8 NE 7 9 4 5 1026.4 1026.5 0.0
27/12:00am 8.1 6.8 5.9 86 1.0 NE 2 4 1 2 1026.5 1026.6 0.0
 
Date/Time
EST
Tmp

°C
App
Tmp
°C
Dew
Point
°C
Rel
Hum
%
Delta-T

°C
Wind Press
QNH
hPa
Press
MSL
hPa
Rain
since
9 am
mm
Dir
 
Spd
km/h
Gust
km/h
Spd
kts
Gust
kts
26/11:30pm 8.3 5.7 5.9 85 1.1 NE 9 11 5 6 1026.7 1026.8 0.0
26/11:00pm 8.3 6.5 5.4 82 1.3 NE 4 6 2 3 1026.8 1026.9 0.0
26/10:30pm 8.5 7.5 5.6 82 1.3 CALM 0 4 0 2 1027.0 1027.1 0.0
26/10:00pm 9.2 6.6 5.9 80 1.5 NE 9 13 5 7 1027.3 1027.4 0.0
26/09:30pm 8.9 6.3 6.3 84 1.2 ENE 9 11 5 6 1027.4 1027.5 0.0
26/09:00pm 8.4 6.2 6.2 86 1.0 NE 7 13 4 7 1027.4 1027.5 0.0
26/08:30pm 8.8 5.5 6.3 84 1.1 NE 13 17 7 9 1027.3 1027.4 0.0
26/08:00pm 9.1 5.8 6.2 82 1.3 NE 13 17 7 9 1027.3 1027.4 0.0
26/07:30pm 9.0 5.2 5.9 81 1.4 NE 15 17 8 9 1027.4 1027.5 0.0
26/07:00pm 9.1 5.3 5.7 79 1.5 NE 15 19 8 10 1027.4 1027.5 0.0
26/06:30pm 9.5 4.9 6.6 82 1.4 NE 20 24 11 13 1027.2 1027.3 0.0
26/06:00pm 10.1 5.1 6.4 78 1.7 ENE 22 28 12 15 1027.0 1027.1 0.0
26/05:30pm 10.5 5.1 6.5 76 1.9 ENE 24 28 13 15 1027.1 1027.2 0.0
26/05:00pm 10.8 5.7 5.8 71 2.3 ENE 22 30 12 16 1027.1 1027.2 0.0
26/04:30pm 11.3 5.7 5.6 68 2.6 ENE 24 28 13 15 1027.2 1027.3 0.0
26/04:00pm 11.9 6.7 5.3 64 3.0 ENE 22 30 12 16 1027.3 1027.4 0.0
26/03:30pm 12.5 6.0 4.5 58 3.6 NE 28 32 15 17 1027.3 1027.4 0.0
26/03:00pm 12.7 6.2 4.9 59 3.6 NE 28 33 15 18 1027.4 1027.5 0.0
26/02:30pm 12.8 5.9 4.8 58 3.7 NE 30 35 16 19 1027.5 1027.6 0.0
26/02:00pm 12.7 6.0 5.4 61 3.4 NE 30 37 16 20 1027.8 1027.9 0.0
26/01:30pm 12.8 5.6 4.8 58 3.7 NE 32 39 17 21 1028.2 1028.3 0.0
26/01:00pm 12.9 5.7 4.8 58 3.7 NE 32 37 17 20 1028.7 1028.8 0.0
26/12:30pm 13.1 7.1 5.3 59 3.6 NE 26 33 14 18 1029.1 1029.2 0.0
26/12:00pm 12.7 6.4 5.6 62 3.3 NE 28 33 15 18 1029.7 1029.8 0.0
26/11:30am 12.4 7.2 5.3 62 3.3 NE 22 28 12 15 1030.1 1030.1 0.0
26/11:00am 11.0 8.8 6.4 73 2.1 NE 7 20 4 11 1030.5 1030.5 0.0
26/10:30am 8.2 6.6 6.2 87 0.9 NE 4 6 2 3 1030.8 1030.8 0.0
26/10:00am 7.7 6.0 5.8 88 0.8 NE 4 6 2 3 1031.0 1031.0 0.0
26/09:30am 7.6 5.9 6.1 90 0.7 NE 4 4 2 2 1031.1 1031.1 0.0
26/09:00am 6.9 5.4 5.2 89 0.7 NE 2 6 1 3 1031.1 1031.1 0.0
26/08:30am 6.7 5.6 5.2 90 0.7 CALM 0 0 0 0 1031.2 1031.2 0.0
26/08:00am 6.5 5.5 5.5 93 0.4 CALM 0 2 0 1 1031.1 1031.1 0.0
26/07:30am 5.3 4.1 4.6 95 0.3 CALM 0 0 0 0 1031.0 1031.0 0.0
26/07:00am 4.5 2.8 3.9 96 0.2 NE 2 6 1 3 1030.8 1030.8 0.0
26/06:30am 4.1 1.5 3.2 94 0.4 NE 6 6 3 3 1030.7 1030.7 0.0
26/06:00am 4.8 2.3 3.8 93 0.4 NE 6 6 3 3 1030.6 1030.6 0.0
26/05:30am 2.9 -0.1 1.9 93 0.4 NE 7 9 4 5 1030.5 1030.5 0.0
26/05:00am 4.5 3.1 3.5 93 0.4 CALM 0 6 0 3 1030.6 1030.6 0.0
26/04:30am 5.0 3.6 3.8 92 0.5 CALM 0 0 0 0 1030.5 1030.5 0.0
26/04:00am 4.8 3.4 3.3 90 0.6 CALM 0 0 0 0 1030.5 1030.5 0.0
26/03:30am 4.6 2.7 2.8 88 0.7 NE 2 4 1 2 1030.6 1030.6 0.0
26/03:00am 4.3 2.8 3.0 91 0.5 CALM 0 2 0 1 1030.6 1030.6 0.0
26/02:30am 5.0 2.4 4.0 93 0.4 NE 7 7 4 4 1030.8 1030.8 0.0
26/02:00am 5.5 4.2 4.3 92 0.5 CALM 0 0 0 0 1031.1 1031.1 0.0
26/01:30am 5.2 3.9 4.2 93 0.4 CALM 0 0 0 0 1031.2 1031.2 0.0
26/01:00am 5.4 4.2 4.4 93 0.4 CALM 0 0 0 0 1031.3 1031.3 0.0
26/12:30am 5.4 3.8 4.4 93 0.4 NE 2 6 1 3 1031.4 1031.4 0.0
26/12:00am 6.0 4.5 4.8 92 0.5 NE 2 2 1 1 1031.4 1031.4 0.0
 
Date/Time
EST
Tmp

°C
App
Tmp
°C
Dew
Point
°C
Rel
Hum
%
Delta-T

°C
Wind Press
QNH
hPa
Press
MSL
hPa
Rain
since
9 am
mm
Dir
 
Spd
km/h
Gust
km/h
Spd
kts
Gust
kts
25/11:30pm 6.2 3.9 5.0 92 0.5 NE 6 6 3 3 1031.4 1031.4 0.0
25/11:00pm 6.6 5.4 4.6 87 0.9 CALM 0 0 0 0 1031.4 1031.4 0.0
25/10:30pm 5.4 3.3 4.1 91 0.6 NE 4 6 2 3 1031.3 1031.3 0.0
25/10:00pm 6.3 4.4 4.8 90 0.6 NE 4 6 2 3 1031.2 1031.2 0.0
25/09:30pm 6.6 4.7 4.8 88 0.8 NE 4 6 2 3 1031.0 1031.0 0.0
25/09:00pm 6.8 4.0 5.0 88 0.8 ENE 9 13 5 7 1030.8 1030.8 0.0
25/08:30pm 7.3 3.8 5.3 87 0.9 NE 13 17 7 9 1030.7 1030.7 0.0
25/08:00pm 7.3 3.3 4.8 84 1.1 NE 15 17 8 9 1030.4 1030.4 0.0
25/07:30pm 7.5 3.8 4.5 81 1.3 NE 13 15 7 8 1030.2 1030.2 0.0
25/07:00pm 8.0 4.0 4.8 80 1.4 NE 15 19 8 10 1030.0 1030.0 0.0
25/06:30pm 8.1 4.4 4.7 79 1.5 NE 13 15 7 8 1029.6 1029.7 0.0
25/06:00pm 8.5 4.5 4.7 77 1.7 NE 15 17 8 9 1029.3 1029.4 0.0
25/05:30pm 8.8 4.3 4.2 73 2.0 NE 17 19 9 10 1029.0 1029.1 0.0
25/05:00pm 9.6 4.5 4.0 68 2.4 NE 20 24 11 13 1028.7 1028.8 0.0
25/04:30pm 10.2 5.3 4.1 66 2.7 NE 19 26 10 14 1028.5 1028.6 0.0
25/04:00pm 11.0 6.8 4.0 62 3.1 S 15 20 8 11 1028.3 1028.4 0.0
25/03:30pm 11.6 9.3 2.9 55 3.8 SSW 4 6 2 3 1028.2 1028.3 0.0
25/03:00pm 10.9 8.6 2.5 56 3.6 SSW 4 6 2 3 1028.3 1028.4 0.0
25/02:30pm 10.9 8.4 3.7 61 3.2 SSW 6 6 3 3 1028.3 1028.4 0.0
25/02:00pm 11.1 8.6 3.6 60 3.3 SSW 6 6 3 3 1028.3 1028.4 0.0
25/01:30pm 10.9 8.8 4.1 63 3.0 SSW 4 6 2 3 1028.3 1028.4 0.0
25/01:00pm 10.1 7.9 3.4 63 2.9 SSW 4 6 2 3 1028.4 1028.5 0.0
25/12:30pm 9.6 7.4 3.6 66 2.6 SSW 4 6 2 3 1028.6 1028.7 0.0
25/12:00pm 9.0 6.6 4.2 72 2.1 SSW 6 7 3 4 1028.9 1029.0 0.0
25/11:30am 8.7 6.0 3.9 72 2.1 SSW 7 7 4 4 1028.9 1029.0 0.0
25/11:00am 8.6 6.0 4.0 73 2.0 SSW 7 9 4 5 1028.7 1028.8 0.0
25/10:30am 7.9 5.3 3.2 72 2.0 SSW 6 9 3 5 1028.6 1028.7 0.0

Latest Capital City Observations: Canberra | Sydney | Melbourne | Brisbane | Adelaide | Perth | Hobart | Darwin

Other Formats:

Comma delimited format used in spreadsheet applications
http://www.bom.gov.au/fwo/IDT60901/IDT60901.94951.axf

JavaScript Object Notation format (JSON) in row-major order
http://www.bom.gov.au/fwo/IDT60901/IDT60901.94951.json